Time;durP1;ratioP1;P1;durP2;ratioP2;P2;SDS_P1;SDS_P2;PMS_P1;PMS_P2;Temp;Humidity;BMP_temperature;BMP_pressure;BME280_temperature;BME280_humidity;BME280_pressure;Samples;Min_cycle;Max_cycle;Signal;HPM_P1;HPM_P2
2023/05/20 00:06:53;;;;;;;4.97;1.67;;;;;;;11.89;61.21;102182.03;15713899;28;20389;-46
2023/05/20 00:14:26;;;;;;;1.58;0.82;;;;;;;11.86;61.54;102172.50;15689765;28;20405;-51
2023/05/20 00:22:00;;;;;;;1.60;0.87;;;;;;;11.62;62.64;102178.09;15725506;28;20044;-51
2023/05/20 00:29:34;;;;;;;0.90;0.60;;;;;;;12.38;60.55;102182.34;15712664;28;20049;-49
2023/05/20 00:37:08;;;;;;;1.10;0.70;;;;;;;11.74;62.06;102174.75;15697720;28;20063;-45
2023/05/20 00:44:40;;;;;;;1.20;0.75;;;;;;;11.80;62.10;102173.22;15672274;28;20037;-47
2023/05/20 00:52:17;;;;;;;1.38;0.85;;;;;;;11.38;63.41;102179.97;15660391;28;20041;-47
2023/05/20 00:59:49;;;;;;;1.58;0.70;;;;;;;11.11;64.23;102178.66;15670363;28;20041;-44
2023/05/20 01:07:25;;;;;;;0.55;0.40;;;;;;;10.95;64.61;102170.69;15689514;28;20464;-46
2023/05/20 01:15:03;;;;;;;1.30;0.68;;;;;;;11.09;64.41;102161.84;15682677;28;20125;-48
2023/05/20 01:22:39;;;;;;;0.60;0.38;;;;;;;10.83;65.09;102142.56;15699645;28;20418;-48
2023/05/20 01:30:23;;;;;;;1.05;0.65;;;;;;;10.83;65.65;102162.19;15677785;28;20036;-48
2023/05/20 01:37:58;;;;;;;3.20;1.15;;;;;;;10.71;66.28;102155.53;15676025;28;20155;-46
2023/05/20 01:45:31;;;;;;;4.43;0.90;;;;;;;10.95;66.05;102147.31;15666671;28;20051;-46
2023/05/20 01:53:07;;;;;;;2.05;1.05;;;;;;;11.21;64.99;102148.84;15650583;28;20037;-45
2023/05/20 02:00:39;;;;;;;1.75;0.75;;;;;;;10.83;66.85;102151.47;15665753;28;20433;-45
2023/05/20 02:08:14;;;;;;;1.73;1.17;;;;;;;10.92;66.80;102144.19;15660017;28;20072;-48
2023/05/20 02:15:46;;;;;;;1.65;0.85;;;;;;;11.10;66.15;102133.97;15665305;28;20494;-50
2023/05/20 02:23:20;;;;;;;2.93;1.37;;;;;;;11.21;66.11;102146.97;15667412;28;20468;-47
2023/05/20 02:30:53;;;;;;;0.38;0.30;;;;;;;11.02;67.04;102138.56;15683745;22;20049;-49
2023/05/20 02:38:28;;;;;;;4.03;1.20;;;;;;;10.87;67.91;102138.50;15685712;28;20079;-49
2023/05/20 02:46:00;;;;;;;1.20;0.75;;;;;;;11.20;66.77;102149.88;15668011;28;20510;-49
2023/05/20 02:53:35;;;;;;;1.45;0.70;;;;;;;11.12;67.07;102152.59;15650734;28;20049;-51
2023/05/20 03:01:09;;;;;;;0.40;0.40;;;;;;;11.03;67.13;102149.13;15649922;28;20446;-51
2023/05/20 03:08:45;;;;;;;0.47;0.38;;;;;;;11.31;66.55;102165.56;15665458;28;20132;-50
2023/05/20 03:16:18;;;;;;;1.02;0.47;;;;;;;10.86;67.91;102161.81;15682522;28;20049;-50
2023/05/20 03:23:53;;;;;;;2.17;0.47;;;;;;;10.99;67.86;102170.13;15664998;28;20124;-51
2023/05/20 03:31:26;;;;;;;1.20;0.75;;;;;;;11.23;67.24;102170.97;15664246;28;20136;-48
2023/05/20 03:39:00;;;;;;;1.90;1.00;;;;;;;11.04;67.57;102164.22;15665179;28;20056;-49
2023/05/20 03:46:35;;;;;;;2.50;0.73;;;;;;;11.15;67.38;102165.69;15663730;28;20295;-50
2023/05/20 03:54:11;;;;;;;2.38;1.27;;;;;;;11.30;67.22;102165.75;15662799;28;20044;-49
2023/05/20 04:01:45;;;;;;;1.05;0.60;;;;;;;11.50;66.66;102173.13;15647052;28;20037;-49
2023/05/20 04:09:20;;;;;;;1.23;0.97;;;;;;;11.59;66.10;102160.44;15645790;28;20450;-53
2023/05/20 04:16:53;;;;;;;1.95;0.47;;;;;;;11.55;66.89;102150.22;15676334;28;20041;-49
2023/05/20 04:24:28;;;;;;;4.38;0.98;;;;;;;11.37;67.64;102158.63;15646339;28;20099;-49
2023/05/20 04:32:03;;;;;;;1.90;0.90;;;;;;;11.63;66.88;102159.06;15657285;28;20060;-51
2023/05/20 04:39:39;;;;;;;0.65;0.45;;;;;;;11.33;67.64;102160.84;15658128;28;20229;-51
2023/05/20 04:47:15;;;;;;;0.88;0.85;;;;;;;11.38;67.70;102163.84;15661495;28;20044;-49
2023/05/20 04:54:50;;;;;;;2.58;1.38;;;;;;;11.37;67.45;102154.06;15661339;28;20041;-51
2023/05/20 05:02:24;;;;;;;2.17;1.30;;;;;;;11.49;67.65;102147.25;15642940;28;20047;-48
2023/05/20 05:09:58;;;;;;;0.75;0.57;;;;;;;11.46;67.81;102147.59;15659858;28;20045;-53
2023/05/20 05:17:33;;;;;;;2.17;1.50;;;;;;;11.45;68.03;102143.25;15660409;28;20466;-51
2023/05/20 05:25:10;;;;;;;1.83;0.70;;;;;;;11.66;67.42;102150.66;15658533;28;20037;-49
2023/05/20 05:32:43;;;;;;;1.30;1.20;;;;;;;11.50;68.07;102145.41;15657851;28;20589;-49
2023/05/20 05:40:18;;;;;;;0.70;0.52;;;;;;;11.86;67.46;102136.69;15656127;28;20045;-49
2023/05/20 05:47:53;;;;;;;2.20;0.70;;;;;;;11.66;67.90;102133.66;15655466;28;20033;-50
2023/05/20 05:55:27;;;;;;;1.73;1.05;;;;;;;11.81;67.64;102131.81;15635463;28;20045;-51
2023/05/20 06:03:02;;;;;;;4.03;0.68;;;;;;;11.85;67.79;102130.47;15672728;28;20041;-51
2023/05/20 06:10:48;;;;;;;10.20;1.67;;;;;;;12.06;67.29;102127.03;15656567;28;20045;-50
2023/05/20 06:18:21;;;;;;;2.05;1.15;;;;;;;12.08;67.29;102124.19;15659054;28;20455;-50
2023/05/20 06:26:00;;;;;;;2.70;1.45;;;;;;;12.05;67.73;102136.13;15658537;28;20055;-49
2023/05/20 06:33:35;;;;;;;3.25;1.50;;;;;;;12.71;66.44;102141.53;15657355;28;20047;-54
2023/05/20 06:41:14;;;;;;;1.30;1.00;;;;;;;12.19;67.32;102153.31;15657289;28;20036;-51
2023/05/20 06:48:48;;;;;;;1.30;1.08;;;;;;;12.29;67.31;102150.31;15677726;28;20110;-52
2023/05/20 06:56:22;;;;;;;1.33;0.57;;;;;;;12.58;67.00;102158.34;15655772;28;20122;-51
2023/05/20 07:03:55;;;;;;;15.02;1.50;;;;;;;12.87;65.66;102151.22;15662663;28;20106;-52
2023/05/20 07:11:30;;;;;;;3.78;1.48;;;;;;;12.85;65.76;102137.13;15665074;28;20057;-51
2023/05/20 07:19:03;;;;;;;2.03;1.02;;;;;;;12.84;65.76;102130.06;15664817;28;20043;-52
2023/05/20 07:26:37;;;;;;;;;;;;;;;13.07;65.61;102125.31;15669681;28;20037;-48
2023/05/20 07:34:10;;;;;;;2.45;1.10;;;;;;;12.94;65.85;102109.84;15671482;28;19967;-48
2023/05/20 07:41:45;;;;;;;1.33;0.93;;;;;;;13.25;64.80;102104.16;15665464;28;20060;-49
2023/05/20 07:49:19;;;;;;;1.92;1.38;;;;;;;13.47;64.68;102113.03;15648554;28;20045;-48
2023/05/20 07:56:54;;;;;;;3.65;1.20;;;;;;;13.76;63.38;102103.09;15657160;28;20417;-52
2023/05/20 08:04:27;;;;;;;2.92;1.50;;;;;;;14.13;62.81;102106.38;15666447;28;20044;-51
2023/05/20 08:12:03;;;;;;;1.40;0.55;;;;;;;14.72;61.20;102093.13;15664407;28;20047;-53
2023/05/20 08:19:36;;;;;;;5.15;1.50;;;;;;;14.50;60.81;102094.31;15661041;28;20039;-51
2023/05/20 08:27:11;;;;;;;;;;;;;;;14.61;60.96;102085.63;15663094;28;20055;-55
2023/05/20 08:34:43;;;;;;;1.67;1.35;;;;;;;14.37;61.25;102072.66;15646703;28;19920;-53
2023/05/20 08:42:22;;;;;;;3.05;1.05;;;;;;;15.08;59.61;102070.31;15662577;28;20044;-50
2023/05/20 08:49:55;;;;;;;1.30;0.93;;;;;;;15.34;58.92;102069.50;15648320;28;20051;-51
2023/05/20 08:57:40;;;;;;;1.80;0.97;;;;;;;14.74;59.79;102074.84;15678336;28;20509;-53
2023/05/20 09:05:13;;;;;;;4.78;1.20;;;;;;;14.47;61.00;102079.31;15631391;28;20630;-55
2023/05/20 09:12:47;;;;;;;0.75;0.55;;;;;;;14.32;61.77;102075.13;15660107;28;20077;-53
2023/05/20 09:20:22;;;;;;;1.77;1.33;;;;;;;14.56;61.13;102085.41;15608352;28;20049;-56
2023/05/20 09:27:56;;;;;;;1.17;1.00;;;;;;;14.49;61.17;102071.03;15674315;28;20049;-50
2023/05/20 09:35:29;;;;;;;2.83;1.33;;;;;;;14.54;61.43;102071.25;15659676;28;20425;-50
2023/05/20 09:43:05;;;;;;;2.25;1.08;;;;;;;14.73;60.89;102077.75;15660323;28;20052;-51
2023/05/20 09:50:43;;;;;;;1.67;0.70;;;;;;;15.37;59.61;102066.34;15641767;28;20091;-51
2023/05/20 09:58:29;;;;;;;4.13;1.58;;;;;;;15.11;60.03;102064.50;15655239;28;20045;-51
2023/05/20 10:06:35;;;;;;;1.63;1.35;;;;;;;15.60;58.65;102052.38;15675556;28;20044;-55
2023/05/20 10:14:49;;;;;;;1.85;1.10;;;;;;;15.51;58.41;102045.50;15657019;28;20497;-54
2023/05/20 10:22:28;;;;;;;3.25;1.40;;;;;;;15.74;58.75;102042.38;15675462;28;20075;-53
2023/05/20 10:30:02;;;;;;;7.65;1.33;;;;;;;15.68;57.99;102038.66;15670345;28;20041;-51
2023/05/20 10:37:42;;;;;;;4.50;1.70;;;;;;;16.38;57.68;102030.66;15660312;28;20098;-54
2023/05/20 10:45:27;;;;;;;1.85;0.90;;;;;;;16.81;55.51;102038.09;15665727;28;20037;-53
2023/05/20 10:53:05;;;;;;;2.28;1.45;;;;;;;17.05;55.08;102028.31;15696018;28;20127;-53
2023/05/20 11:00:39;;;;;;;3.00;1.67;;;;;;;17.09;54.73;102002.41;15659237;28;20102;-53
2023/05/20 11:08:20;;;;;;;2.08;1.27;;;;;;;18.01;53.89;101997.03;15668429;28;20040;-55
2023/05/20 11:15:54;;;;;;;3.90;2.17;;;;;;;18.31;51.21;101986.16;15686608;28;20098;-51
2023/05/20 11:23:29;;;;;;;1.77;1.30;;;;;;;18.95;49.25;101976.41;15643034;28;20091;-52
2023/05/20 11:31:05;;;;;;;3.30;1.23;;;;;;;20.37;45.77;101975.00;15692861;28;20061;-53
2023/05/20 11:38:38;;;;;;;4.30;1.92;;;;;;;19.67;47.33;101965.22;15705922;28;20135;-52
2023/05/20 11:46:12;;;;;;;4.28;1.38;;;;;;;18.49;49.81;101964.34;15711909;28;20507;-52
2023/05/20 11:53:48;;;;;;;1.98;1.13;;;;;;;18.79;50.57;101945.28;15665672;28;20051;-51
2023/05/20 12:01:23;;;;;;;3.17;1.95;;;;;;;20.08;48.84;101930.59;15665206;28;20055;-51
2023/05/20 12:08:56;;;;;;;3.53;1.88;;;;;;;20.38;46.23;101933.03;15683245;28;20045;-52
2023/05/20 12:16:31;;;;;;;2.33;1.27;;;;;;;18.86;49.68;101929.66;15681155;28;20045;-52
2023/05/20 12:24:05;;;;;;;2.38;1.55;;;;;;;20.15;47.25;101914.91;15664617;28;20051;-52
2023/05/20 12:31:40;;;;;;;2.83;1.52;;;;;;;19.26;49.14;101911.78;15663676;28;20049;-53
2023/05/20 12:39:16;;;;;;;2.88;1.52;;;;;;;20.77;46.04;101906.69;15664394;28;20067;-55
2023/05/20 12:46:50;;;;;;;2.80;1.55;;;;;;;22.30;42.65;101894.06;15663236;28;20048;-51
2023/05/20 12:54:26;;;;;;;2.22;1.48;;;;;;;22.30;42.22;101885.88;15680540;28;20072;-52
2023/05/20 13:02:01;;;;;;;5.07;1.70;;;;;;;21.04;45.29;101874.06;15678935;28;20060;-53
2023/05/20 13:09:34;;;;;;;2.80;1.48;;;;;;;21.45;43.94;101863.69;15644786;28;20417;-53
2023/05/20 13:17:08;;;;;;;3.20;1.77;;;;;;;20.91;45.41;101855.31;15661099;28;20490;-54
2023/05/20 13:24:41;;;;;;;1.33;0.98;;;;;;;19.53;48.76;101838.53;15678618;28;20037;-51
2023/05/20 13:32:15;;;;;;;;;;;;;;;20.16;48.58;101821.16;15676864;28;20045;-52
2023/05/20 13:39:51;;;;;;;6.68;2.17;;;;;;;19.90;49.22;101824.50;15670483;28;20450;-53
2023/05/20 13:47:25;;;;;;;2.72;1.52;;;;;;;19.16;49.80;101821.72;15675980;28;20486;-49
2023/05/20 13:54:58;;;;;;;3.30;1.65;;;;;;;19.17;49.98;101820.69;15668537;28;20486;-52
2023/05/20 14:02:32;;;;;;;2.92;1.25;;;;;;;19.21;50.39;101819.94;15674843;28;20059;-52
2023/05/20 14:10:07;;;;;;;2.72;2.00;;;;;;;19.71;49.01;101804.84;15668881;28;20053;-53
2023/05/20 14:17:44;;;;;;;1.75;1.13;;;;;;;19.45;49.86;101806.25;15657401;28;20076;-54
2023/05/20 14:25:20;;;;;;;2.30;1.40;;;;;;;19.31;50.29;101790.19;15665035;28;20114;-55
2023/05/20 14:32:54;;;;;;;;;;;;;;;19.24;50.28;101775.06;15731812;22;20105;-47
2023/05/20 14:40:27;;;;;;;7.80;2.55;;;;;;;19.59;49.85;101767.56;15725546;28;20391;-51
2023/05/20 14:48:01;;;;;;;;;;;;;;;19.71;49.87;101762.06;15734211;28;20044;-53
2023/05/20 14:55:33;;;;;;;4.05;1.90;;;;;;;19.85;49.24;101759.84;15745492;28;19930;-51
2023/05/20 15:03:07;;;;;;;;;;;;;;;19.86;49.81;101740.56;15727538;28;20508;-48
2023/05/20 15:10:40;;;;;;;2.08;1.33;;;;;;;19.67;49.61;101743.75;15736010;28;19927;-46
2023/05/20 15:18:16;;;;;;;;;;;;;;;19.49;50.17;101736.59;15721081;28;20055;-50
2023/05/20 15:25:49;;;;;;;2.63;1.45;;;;;;;19.47;49.94;101736.03;15755361;28;20453;-46
2023/05/20 15:33:23;;;;;;;1.65;1.00;;;;;;;19.98;50.31;101729.56;15748130;28;20037;-47
2023/05/20 15:40:56;;;;;;;2.13;1.30;;;;;;;19.64;50.30;101723.28;15757660;28;20398;-46
2023/05/20 15:48:30;;;;;;;1.02;0.65;;;;;;;19.62;49.95;101714.53;15749390;28;20127;-51
2023/05/20 15:56:03;;;;;;;2.17;1.67;;;;;;;19.49;50.36;101703.91;15730966;28;20048;-46
2023/05/20 16:03:37;;;;;;;1.27;0.90;;;;;;;19.36;50.64;101707.78;15776650;28;20166;-48
2023/05/20 16:11:10;;;;;;;4.93;1.48;;;;;;;19.46;50.11;101688.91;15753658;28;20048;-49
2023/05/20 16:18:44;;;;;;;2.95;1.30;;;;;;;19.68;50.40;101694.50;15753530;28;20047;-49
2023/05/20 16:26:17;;;;;;;2.42;1.40;;;;;;;19.44;50.35;101663.00;15756261;28;20040;-47
2023/05/20 16:33:52;;;;;;;3.50;1.98;;;;;;;19.70;50.15;101689.59;15763413;28;20044;-46
2023/05/20 16:41:25;;;;;;;2.72;1.60;;;;;;;19.41;50.90;101675.22;15748503;28;20500;-49
2023/05/20 16:48:58;;;;;;;;;;;;;;;19.14;51.25;101668.75;15745991;28;20105;-45
2023/05/20 16:56:32;;;;;;;6.60;1.55;;;;;;;19.45;51.01;101675.56;15719752;28;20304;-48
2023/05/20 17:04:06;;;;;;;3.22;1.38;;;;;;;19.29;51.67;101669.81;15745430;28;20041;-46
2023/05/20 17:11:40;;;;;;;1.02;0.77;;;;;;;19.05;51.47;101671.03;15747204;28;20048;-48
2023/05/20 17:19:14;;;;;;;;;;;;;;;19.43;51.49;101664.06;15744598;28;20468;-48
2023/05/20 17:26:47;;;;;;;2.05;1.40;;;;;;;19.24;51.42;101658.03;15723040;28;19963;-49
2023/05/20 17:34:21;;;;;;;2.03;1.50;;;;;;;19.30;51.19;101666.03;15710699;28;20090;-48
2023/05/20 17:41:54;;;;;;;2.28;1.45;;;;;;;19.07;52.19;101674.31;15759523;28;20044;-47
2023/05/20 17:49:29;;;;;;;2.20;1.75;;;;;;;19.07;52.01;101669.72;15737221;28;20056;-47
2023/05/20 17:57:01;;;;;;;2.90;1.17;;;;;;;19.07;52.15;101664.28;15735273;28;20041;-47
2023/05/20 18:04:36;;;;;;;1.70;1.20;;;;;;;18.95;52.57;101668.13;15742459;28;20044;-49
2023/05/20 18:12:09;;;;;;;6.47;1.98;;;;;;;18.64;53.18;101667.47;15736594;28;20063;-51
2023/05/20 18:19:43;;;;;;;4.70;1.75;;;;;;;18.62;53.71;101658.75;15748156;28;20036;-49
2023/05/20 18:27:16;;;;;;;4.30;1.73;;;;;;;18.74;53.35;101659.56;15735905;28;20052;-52
2023/05/20 18:34:50;;;;;;;3.00;1.67;;;;;;;18.48;54.12;101654.66;15736383;28;20048;-52
2023/05/20 18:42:23;;;;;;;1.60;1.13;;;;;;;18.33;54.52;101647.00;15728875;28;20521;-46
2023/05/20 18:49:57;;;;;;;2.17;1.50;;;;;;;18.47;54.40;101664.72;15751155;28;20056;-47
2023/05/20 18:57:30;;;;;;;3.60;1.92;;;;;;;18.52;54.30;101669.44;15736274;28;20483;-48
2023/05/20 19:05:05;;;;;;;3.22;1.30;;;;;;;18.32;55.12;101673.34;15735816;28;20043;-51
2023/05/20 19:12:40;;;;;;;4.93;2.20;;;;;;;18.67;54.32;101677.88;15737777;28;20098;-49
2023/05/20 19:20:14;;;;;;;2.50;1.50;;;;;;;18.66;54.30;101686.28;15757548;28;20512;-47
2023/05/20 19:27:47;;;;;;;2.92;1.40;;;;;;;18.45;55.02;101682.31;15752592;28;20079;-48
2023/05/20 19:35:21;;;;;;;8.85;2.03;;;;;;;18.58;54.46;101684.75;15739170;28;20043;-57
2023/05/20 19:42:55;;;;;;;6.32;1.83;;;;;;;18.35;55.21;101691.06;15744086;28;20044;-47
2023/05/20 19:50:29;;;;;;;5.13;1.33;;;;;;;18.30;55.30;101697.22;15732983;28;20131;-49
2023/05/20 19:58:02;;;;;;;2.90;1.85;;;;;;;18.20;55.41;101698.91;15777869;28;20098;-48
2023/05/20 20:05:36;;;;;;;1.55;1.45;;;;;;;18.36;55.34;101701.69;15770803;28;20381;-47
2023/05/20 20:13:10;;;;;;;1.65;1.00;;;;;;;17.86;56.83;101690.53;15736783;28;20044;-50
2023/05/20 20:20:44;;;;;;;3.72;2.35;;;;;;;17.95;56.54;101694.53;15735725;28;20064;-48
2023/05/20 20:28:17;;;;;;;2.83;1.25;;;;;;;17.91;56.88;101690.66;15740811;28;20072;-50
2023/05/20 20:35:53;;;;;;;3.65;1.70;;;;;;;17.49;57.53;101677.09;15772284;28;20044;-48
2023/05/20 20:43:27;;;;;;;2.03;1.35;;;;;;;17.30;58.55;101689.09;15736999;28;20043;-48
2023/05/20 20:51:01;;;;;;;2.10;1.17;;;;;;;17.19;58.82;101679.84;15740598;28;20048;-50
2023/05/20 20:58:36;;;;;;;1.65;1.13;;;;;;;16.99;59.92;101679.31;15728863;28;20497;-51
2023/05/20 21:06:13;;;;;;;4.20;1.95;;;;;;;16.79;60.28;101676.88;15765011;28;20127;-51
2023/05/20 21:13:46;;;;;;;3.03;1.48;;;;;;;16.95;60.00;101662.66;15709626;28;20044;-50
2023/05/20 21:21:20;;;;;;;2.13;1.77;;;;;;;16.88;60.88;101663.81;15725002;28;20040;-51
2023/05/20 21:28:53;;;;;;;3.40;1.88;;;;;;;16.94;60.58;101649.34;15762436;28;20072;-49
2023/05/20 21:36:27;;;;;;;3.33;1.90;;;;;;;16.96;60.58;101642.63;15736498;28;20044;-53
2023/05/20 21:44:00;;;;;;;4.45;1.77;;;;;;;17.07;60.40;101630.16;15717690;28;20063;-51
2023/05/20 21:51:34;;;;;;;3.72;2.13;;;;;;;16.54;62.30;101620.00;15721298;28;20516;-48
2023/05/20 21:59:07;;;;;;;5.75;2.20;;;;;;;16.66;61.81;101622.78;15724974;28;20048;-48
2023/05/20 22:06:41;;;;;;;2.37;2.00;;;;;;;16.48;62.59;101626.34;15692383;28;20040;-49
2023/05/20 22:14:14;;;;;;;3.25;1.60;;;;;;;16.59;62.56;101628.28;15678816;28;20373;-48
2023/05/20 22:21:49;;;;;;;4.50;3.03;;;;;;;16.48;62.63;101621.75;15679138;28;20440;-49
2023/05/20 22:29:21;;;;;;;4.60;2.40;;;;;;;16.41;63.38;101620.16;15682443;28;20421;-49
2023/05/20 22:36:56;;;;;;;4.50;2.23;;;;;;;16.27;63.92;101619.50;15737285;28;20062;-46
2023/05/20 22:44:29;;;;;;;5.65;1.92;;;;;;;16.26;63.98;101612.44;15744926;28;20037;-50
2023/05/20 22:52:05;;;;;;;2.93;1.87;;;;;;;15.97;65.03;101609.44;15776925;28;20119;-48
2023/05/20 22:59:37;;;;;;;5.10;2.75;;;;;;;16.02;64.97;101606.03;15775704;28;20066;-48
2023/05/20 23:07:13;;;;;;;;;;;;;;;15.88;65.76;101608.06;15734639;28;20032;-52
2023/05/20 23:14:46;;;;;;;4.85;3.30;;;;;;;15.87;65.85;101602.88;15762362;28;20197;-49
2023/05/20 23:22:21;;;;;;;5.73;3.27;;;;;;;15.77;66.29;101589.88;15753151;28;20135;-46
2023/05/20 23:29:55;;;;;;;5.00;2.88;;;;;;;15.97;65.57;101584.25;15773113;28;20474;-47
2023/05/20 23:37:30;;;;;;;5.22;2.75;;;;;;;15.54;67.29;101582.34;15733435;28;20062;-48
2023/05/20 23:45:03;;;;;;;4.07;2.72;;;;;;;15.54;67.19;101576.94;15718983;28;20094;-49
2023/05/20 23:52:39;;;;;;;5.90;2.63;;;;;;;15.18;68.61;101581.19;15724113;28;20134;-47
